LICB/CIY METAR and TAF weather

Enter ICAO airport designator
Station Type Date Time Source
LICB METAR 2021/04/17 02:20 UTC NOAA

LICB 170220Z AUTO VRB03KT 9999 NCD 10/06 Q1007


Station Type Date Time Source
LICB Decoded METAR 2021/04/17 02:20 UTC NOAA

Comiso As Usaf , Italy (LICB) 36-56N 014-36E
Apr 16, 2021 - 10:20 PM EDT / 2021.04.17 0220 UTC
Wind: Variable at 3 MPH (3 KT):0
Visibility: greater than 7 mile(s):0
Temperature: 50 F (10 C)
Dew Point: 42 F (6 C)
Relative Humidity: 76%
Pressure (altimeter): 29.74 in. Hg (1007 hPa)
ob: LICB 170220Z AUTO VRB03KT 9999 NCD 10/06 Q1007
cycle: 2

Station Type Date Time Source
LICB TAF UTC NOAA

Error!

Example: see airport list